Ana Sayfa
METAR-TAF:

METAR-TAF

Havaalanları :

Emporia Municipal Airport

Emporia, Kansas, Amerika Birleşik Devletleri

Enlem: 38-19-44N, Boylam: 096-11-38W, yükseklik: 367 m

Güncel hava durumu gözlemi

Rapor saat 10:53 UTC de 38 dakika önce yapıldı.
Rüzgar kuzey/kuzeydoğudan 5 kt
Sıcaklık 24°C
Nem 78%
Basınç 1012 hPa
Görüş mesafesi: 16.1 km
5500 ft yükseklikte az bulutlu
12000 ft yükseklikte parçalı çok bulutlu

METAR: KEMP 161053Z AUTO 03005KT 10SM FEW055 BKN120 24/20 A2988 RMK AO2 LTG DSNT W AND NW RAB02E53 PRESRR SLP108 P0001 T02390200

Saat: 06:31 (11:31 UTC)


TAF: eksik

4.000'den fazla havaalanı için hava durumu gözlemleri ve tahminleri (METAR ve TAF raporları).

Kullanılabilir istasyonlar harita üzerinde sarı ve kırmızı noktalarla gösterilir.

İstasyonun adını görmek için fareyi noktanın üzerinde gezdirin.

Sonrasında hava gözlem ve tahminlerini görmek için tıklayın.

Haritayı değiştirmek için: yaklaştırmak için siyah artı işaretli yeşil düğmeye ve uzaklaştırmak için de eksi işaretli düğmeye hızla tıklayın; bitişik haritalar için yeşil okları kullanın.


METAR-TAF: